sensor_id;sensor_type;location;lat;lon;timestamp;temperature;humidity
41985;DHT22;28319;48.116;10.818;2023-05-08T00:00:14;15.30;99.90
41985;DHT22;28319;48.116;10.818;2023-05-08T00:05:17;15.20;99.90
41985;DHT22;28319;48.116;10.818;2023-05-08T00:10:20;15.00;99.90
41985;DHT22;28319;48.116;10.818;2023-05-08T00:15:22;15.10;99.90
41985;DHT22;28319;48.116;10.818;2023-05-08T00:20:24;15.00;99.90
41985;DHT22;28319;48.116;10.818;2023-05-08T00:25:27;15.00;99.90
41985;DHT22;28319;48.116;10.818;2023-05-08T00:30:30;14.90;99.90
41985;DHT22;28319;48.116;10.818;2023-05-08T00:35:32;14.90;99.90
41985;DHT22;28319;48.116;10.818;2023-05-08T00:40:36;15.00;99.90
41985;DHT22;28319;48.116;10.818;2023-05-08T00:45:38;15.00;99.90
41985;DHT22;28319;48.116;10.818;2023-05-08T00:50:41;15.00;99.90
41985;DHT22;28319;48.116;10.818;2023-05-08T00:55:44;14.90;99.90
41985;DHT22;28319;48.116;10.818;2023-05-08T01:00:46;14.90;99.90
41985;DHT22;28319;48.116;10.818;2023-05-08T01:05:50;14.90;99.90
41985;DHT22;28319;48.116;10.818;2023-05-08T01:11:04;14.90;99.90
41985;DHT22;28319;48.116;10.818;2023-05-08T01:16:13;14.90;99.90
41985;DHT22;28319;48.116;10.818;2023-05-08T01:21:23;14.80;99.90
41985;DHT22;28319;48.116;10.818;2023-05-08T01:27:00;14.80;99.90
41985;DHT22;28319;48.116;10.818;2023-05-08T01:32:25;14.70;99.90
41985;DHT22;28319;48.116;10.818;2023-05-08T01:37:31;14.80;99.90
41985;DHT22;28319;48.116;10.818;2023-05-08T01:42:47;14.80;99.90
41985;DHT22;28319;48.116;10.818;2023-05-08T01:47:59;14.90;99.90
41985;DHT22;28319;48.116;10.818;2023-05-08T01:53:15;14.90;99.90
41985;DHT22;28319;48.116;10.818;2023-05-08T01:58:18;14.70;99.90
41985;DHT22;28319;48.116;10.818;2023-05-08T02:03:23;14.70;99.90
41985;DHT22;28319;48.116;10.818;2023-05-08T02:08:28;14.90;99.90
41985;DHT22;28319;48.116;10.818;2023-05-08T02:13:31;15.00;99.90
41985;DHT22;28319;48.116;10.818;2023-05-08T02:18:36;15.10;99.90
41985;DHT22;28319;48.116;10.818;2023-05-08T02:23:40;15.10;99.90
41985;DHT22;28319;48.116;10.818;2023-05-08T02:28:43;15.10;99.90
41985;DHT22;28319;48.116;10.818;2023-05-08T02:33:48;15.00;99.90
41985;DHT22;28319;48.116;10.818;2023-05-08T02:38:53;14.90;99.90
41985;DHT22;28319;48.116;10.818;2023-05-08T02:43:58;14.90;99.90
41985;DHT22;28319;48.116;10.818;2023-05-08T02:49:06;14.90;99.90
41985;DHT22;28319;48.116;10.818;2023-05-08T02:54:13;14.90;99.90
41985;DHT22;28319;48.116;10.818;2023-05-08T02:59:19;15.10;99.90
41985;DHT22;28319;48.116;10.818;2023-05-08T03:04:29;15.00;99.90
41985;DHT22;28319;48.116;10.818;2023-05-08T03:09:38;15.00;99.90
41985;DHT22;28319;48.116;10.818;2023-05-08T03:14:46;14.90;99.90
41985;DHT22;28319;48.116;10.818;2023-05-08T03:19:58;14.90;99.90
41985;DHT22;28319;48.116;10.818;2023-05-08T03:25:03;14.90;99.90
41985;DHT22;28319;48.116;10.818;2023-05-08T03:30:07;15.10;99.90
41985;DHT22;28319;48.116;10.818;2023-05-08T03:35:12;15.00;99.90
41985;DHT22;28319;48.116;10.818;2023-05-08T03:40:15;15.10;99.90
41985;DHT22;28319;48.116;10.818;2023-05-08T03:45:19;15.20;99.90
41985;DHT22;28319;48.116;10.818;2023-05-08T03:50:23;15.20;99.90
41985;DHT22;28319;48.116;10.818;2023-05-08T03:55:25;14.90;99.90
41985;DHT22;28319;48.116;10.818;2023-05-08T04:00:32;14.90;99.90
41985;DHT22;28319;48.116;10.818;2023-05-08T04:05:46;14.90;99.90
41985;DHT22;28319;48.116;10.818;2023-05-08T04:10:56;14.80;99.90
41985;DHT22;28319;48.116;10.818;2023-05-08T04:16:06;14.50;99.90
41985;DHT22;28319;48.116;10.818;2023-05-08T04:21:10;14.60;99.90
41985;DHT22;28319;48.116;10.818;2023-05-08T04:26:16;14.60;99.90
41985;DHT22;28319;48.116;10.818;2023-05-08T04:31:18;14.50;99.90
41985;DHT22;28319;48.116;10.818;2023-05-08T04:36:22;14.50;99.90
41985;DHT22;28319;48.116;10.818;2023-05-08T04:41:25;14.40;99.90
41985;DHT22;28319;48.116;10.818;2023-05-08T04:46:27;14.30;99.90
41985;DHT22;28319;48.116;10.818;2023-05-08T04:51:31;14.20;99.90
41985;DHT22;28319;48.116;10.818;2023-05-08T04:56:33;14.50;99.90
41985;DHT22;28319;48.116;10.818;2023-05-08T05:01:35;14.50;99.90
41985;DHT22;28319;48.116;10.818;2023-05-08T05:06:39;14.60;99.90
41985;DHT22;28319;48.116;10.818;2023-05-08T05:11:41;14.70;99.90
41985;DHT22;28319;48.116;10.818;2023-05-08T05:16:43;14.80;99.90
41985;DHT22;28319;48.116;10.818;2023-05-08T05:21:47;14.80;99.90
41985;DHT22;28319;48.116;10.818;2023-05-08T05:26:49;14.90;99.90
41985;DHT22;28319;48.116;10.818;2023-05-08T05:31:51;14.90;99.90
41985;DHT22;28319;48.116;10.818;2023-05-08T05:36:54;14.70;99.90
41985;DHT22;28319;48.116;10.818;2023-05-08T05:41:56;14.70;99.90
41985;DHT22;28319;48.116;10.818;2023-05-08T05:46:58;14.60;99.90
41985;DHT22;28319;48.116;10.818;2023-05-08T05:52:02;14.70;99.90
41985;DHT22;28319;48.116;10.818;2023-05-08T05:57:04;14.70;99.90
41985;DHT22;28319;48.116;10.818;2023-05-08T06:02:06;14.60;99.90
41985;DHT22;28319;48.116;10.818;2023-05-08T06:07:11;14.70;99.90
41985;DHT22;28319;48.116;10.818;2023-05-08T06:12:13;14.70;99.90
41985;DHT22;28319;48.116;10.818;2023-05-08T06:17:15;14.80;99.90
41985;DHT22;28319;48.116;10.818;2023-05-08T06:22:20;14.50;99.90
41985;DHT22;28319;48.116;10.818;2023-05-08T06:27:22;14.40;99.90
41985;DHT22;28319;48.116;10.818;2023-05-08T06:32:25;14.10;99.90
41985;DHT22;28319;48.116;10.818;2023-05-08T06:37:28;14.30;99.90
41985;DHT22;28319;48.116;10.818;2023-05-08T06:42:30;14.30;99.90
41985;DHT22;28319;48.116;10.818;2023-05-08T06:47:32;14.40;99.90
41985;DHT22;28319;48.116;10.818;2023-05-08T06:52:35;14.30;99.90
41985;DHT22;28319;48.116;10.818;2023-05-08T06:57:37;14.30;99.90
41985;DHT22;28319;48.116;10.818;2023-05-08T07:02:39;14.30;99.90
41985;DHT22;28319;48.116;10.818;2023-05-08T07:07:43;14.40;99.90
41985;DHT22;28319;48.116;10.818;2023-05-08T07:12:45;14.50;99.90
41985;DHT22;28319;48.116;10.818;2023-05-08T07:17:47;14.40;99.90
41985;DHT22;28319;48.116;10.818;2023-05-08T07:22:50;14.30;99.90
41985;DHT22;28319;48.116;10.818;2023-05-08T07:27:52;14.60;99.90
41985;DHT22;28319;48.116;10.818;2023-05-08T07:32:54;14.40;99.90
41985;DHT22;28319;48.116;10.818;2023-05-08T07:37:58;14.50;99.90
41985;DHT22;28319;48.116;10.818;2023-05-08T07:43:00;14.30;99.90
41985;DHT22;28319;48.116;10.818;2023-05-08T07:48:03;14.40;99.90
41985;DHT22;28319;48.116;10.818;2023-05-08T07:53:06;14.40;99.90
41985;DHT22;28319;48.116;10.818;2023-05-08T07:58:09;14.60;99.90
41985;DHT22;28319;48.116;10.818;2023-05-08T08:03:10;14.60;99.90
41985;DHT22;28319;48.116;10.818;2023-05-08T08:08:14;14.70;99.90
41985;DHT22;28319;48.116;10.818;2023-05-08T08:13:16;14.60;99.90
41985;DHT22;28319;48.116;10.818;2023-05-08T08:18:18;14.60;99.90
41985;DHT22;28319;48.116;10.818;2023-05-08T08:23:22;14.70;99.90
41985;DHT22;28319;48.116;10.818;2023-05-08T08:28:24;14.80;99.90
41985;DHT22;28319;48.116;10.818;2023-05-08T08:33:26;14.50;99.90
41985;DHT22;28319;48.116;10.818;2023-05-08T08:38:30;14.70;99.90
41985;DHT22;28319;48.116;10.818;2023-05-08T08:43:32;14.60;99.90
41985;DHT22;28319;48.116;10.818;2023-05-08T08:48:37;14.50;99.90
41985;DHT22;28319;48.116;10.818;2023-05-08T08:53:43;14.40;99.90
41985;DHT22;28319;48.116;10.818;2023-05-08T08:58:50;14.30;99.90
41985;DHT22;28319;48.116;10.818;2023-05-08T09:03:55;14.20;99.90
41985;DHT22;28319;48.116;10.818;2023-05-08T09:09:00;14.30;99.90
41985;DHT22;28319;48.116;10.818;2023-05-08T09:14:02;14.30;99.90
41985;DHT22;28319;48.116;10.818;2023-05-08T09:19:04;14.40;99.90
41985;DHT22;28319;48.116;10.818;2023-05-08T09:24:08;14.40;99.90
41985;DHT22;28319;48.116;10.818;2023-05-08T09:29:12;14.50;99.90
41985;DHT22;28319;48.116;10.818;2023-05-08T09:34:22;14.60;99.90
41985;DHT22;28319;48.116;10.818;2023-05-08T09:39:27;14.70;99.90
41985;DHT22;28319;48.116;10.818;2023-05-08T09:44:42;14.70;99.90
41985;DHT22;28319;48.116;10.818;2023-05-08T09:49:56;14.70;99.90
41985;DHT22;28319;48.116;10.818;2023-05-08T09:55:01;14.70;99.90
41985;DHT22;28319;48.116;10.818;2023-05-08T10:00:05;14.60;99.90
41985;DHT22;28319;48.116;10.818;2023-05-08T10:05:23;14.60;99.90
41985;DHT22;28319;48.116;10.818;2023-05-08T10:10:27;14.60;99.90
41985;DHT22;28319;48.116;10.818;2023-05-08T10:15:30;14.60;99.90
41985;DHT22;28319;48.116;10.818;2023-05-08T10:20:34;14.70;99.90
41985;DHT22;28319;48.116;10.818;2023-05-08T10:25:42;14.60;99.90
41985;DHT22;28319;48.116;10.818;2023-05-08T10:30:47;14.90;99.90
41985;DHT22;28319;48.116;10.818;2023-05-08T10:35:50;15.00;99.90
41985;DHT22;28319;48.116;10.818;2023-05-08T10:40:54;14.90;99.90
41985;DHT22;28319;48.116;10.818;2023-05-08T10:46:01;15.00;99.90
41985;DHT22;28319;48.116;10.818;2023-05-08T10:51:08;15.00;99.90
41985;DHT22;28319;48.116;10.818;2023-05-08T10:56:12;15.00;99.90
41985;DHT22;28319;48.116;10.818;2023-05-08T11:01:15;14.90;99.90
41985;DHT22;28319;48.116;10.818;2023-05-08T11:06:40;14.90;99.90
41985;DHT22;28319;48.116;10.818;2023-05-08T11:12:05;14.90;99.90
41985;DHT22;28319;48.116;10.818;2023-05-08T11:17:08;14.90;99.90
41985;DHT22;28319;48.116;10.818;2023-05-08T11:33:16;15.10;99.90
41985;DHT22;28319;48.116;10.818;2023-05-08T11:38:24;15.00;99.90
41985;DHT22;28319;48.116;10.818;2023-05-08T11:43:35;15.10;99.90
41985;DHT22;28319;48.116;10.818;2023-05-08T11:48:39;15.00;99.90
41985;DHT22;28319;48.116;10.818;2023-05-08T11:53:43;15.20;99.90
41985;DHT22;28319;48.116;10.818;2023-05-08T11:58:46;15.20;99.90
41985;DHT22;28319;48.116;10.818;2023-05-08T12:03:48;15.30;99.90
41985;DHT22;28319;48.116;10.818;2023-05-08T12:09:00;15.40;99.90
41985;DHT22;28319;48.116;10.818;2023-05-08T12:14:05;15.40;99.90
41985;DHT22;28319;48.116;10.818;2023-05-08T12:19:12;15.50;99.90
41985;DHT22;28319;48.116;10.818;2023-05-08T12:24:15;15.50;99.90
41985;DHT22;28319;48.116;10.818;2023-05-08T12:29:23;15.40;99.90
41985;DHT22;28319;48.116;10.818;2023-05-08T12:34:26;15.40;99.90
41985;DHT22;28319;48.116;10.818;2023-05-08T12:39:33;15.30;99.90
41985;DHT22;28319;48.116;10.818;2023-05-08T12:44:36;15.30;99.90
41985;DHT22;28319;48.116;10.818;2023-05-08T12:49:38;15.30;99.90
41985;DHT22;28319;48.116;10.818;2023-05-08T12:54:45;15.20;99.90
41985;DHT22;28319;48.116;10.818;2023-05-08T12:59:49;15.20;99.90
41985;DHT22;28319;48.116;10.818;2023-05-08T13:04:53;15.30;99.90
41985;DHT22;28319;48.116;10.818;2023-05-08T13:09:56;15.30;99.90
41985;DHT22;28319;48.116;10.818;2023-05-08T13:15:00;15.40;99.90
41985;DHT22;28319;48.116;10.818;2023-05-08T13:20:05;15.60;99.90
41985;DHT22;28319;48.116;10.818;2023-05-08T13:25:08;15.60;99.90
41985;DHT22;28319;48.116;10.818;2023-05-08T13:30:12;15.60;99.90
41985;DHT22;28319;48.116;10.818;2023-05-08T13:35:14;15.70;99.90
41985;DHT22;28319;48.116;10.818;2023-05-08T13:40:17;15.80;99.90
41985;DHT22;28319;48.116;10.818;2023-05-08T13:45:20;15.80;99.90
41985;DHT22;28319;48.116;10.818;2023-05-08T13:50:22;15.90;99.90
41985;DHT22;28319;48.116;10.818;2023-05-08T13:55:24;15.80;99.90
41985;DHT22;28319;48.116;10.818;2023-05-08T14:00:28;16.00;99.90
41985;DHT22;28319;48.116;10.818;2023-05-08T14:05:30;16.00;99.90
41985;DHT22;28319;48.116;10.818;2023-05-08T14:10:32;15.90;99.90
41985;DHT22;28319;48.116;10.818;2023-05-08T14:15:36;15.80;99.90
41985;DHT22;28319;48.116;10.818;2023-05-08T14:20:38;15.70;99.90
41985;DHT22;28319;48.116;10.818;2023-05-08T14:25:40;15.60;99.90
41985;DHT22;28319;48.116;10.818;2023-05-08T14:30:43;15.40;99.90
41985;DHT22;28319;48.116;10.818;2023-05-08T14:35:45;15.40;99.90
41985;DHT22;28319;48.116;10.818;2023-05-08T14:40:48;15.30;99.90
41985;DHT22;28319;48.116;10.818;2023-05-08T14:45:52;15.20;99.90
41985;DHT22;28319;48.116;10.818;2023-05-08T14:50:55;15.10;99.90
41985;DHT22;28319;48.116;10.818;2023-05-08T14:55:57;15.10;99.90
41985;DHT22;28319;48.116;10.818;2023-05-08T15:01:00;15.10;99.90
41985;DHT22;28319;48.116;10.818;2023-05-08T15:06:03;15.10;99.90
41985;DHT22;28319;48.116;10.818;2023-05-08T15:11:05;15.10;99.90
41985;DHT22;28319;48.116;10.818;2023-05-08T15:16:08;15.20;99.90
41985;DHT22;28319;48.116;10.818;2023-05-08T15:21:10;15.00;99.90
41985;DHT22;28319;48.116;10.818;2023-05-08T15:26:12;14.90;99.90
41985;DHT22;28319;48.116;10.818;2023-05-08T15:31:16;15.00;99.90
41985;DHT22;28319;48.116;10.818;2023-05-08T15:36:18;15.10;99.90
41985;DHT22;28319;48.116;10.818;2023-05-08T15:41:20;15.10;99.90
41985;DHT22;28319;48.116;10.818;2023-05-08T15:46:23;15.10;99.90
41985;DHT22;28319;48.116;10.818;2023-05-08T15:51:25;15.20;99.90
41985;DHT22;28319;48.116;10.818;2023-05-08T15:56:27;15.30;99.90
41985;DHT22;28319;48.116;10.818;2023-05-08T16:01:30;15.40;99.90
41985;DHT22;28319;48.116;10.818;2023-05-08T16:06:33;15.40;99.90
41985;DHT22;28319;48.116;10.818;2023-05-08T16:11:35;15.50;99.90
41985;DHT22;28319;48.116;10.818;2023-05-08T16:16:38;15.60;99.90
41985;DHT22;28319;48.116;10.818;2023-05-08T16:21:40;15.70;99.90
41985;DHT22;28319;48.116;10.818;2023-05-08T16:26:42;15.60;99.90
41985;DHT22;28319;48.116;10.818;2023-05-08T16:31:46;15.60;99.90
41985;DHT22;28319;48.116;10.818;2023-05-08T16:36:48;15.80;99.90
41985;DHT22;28319;48.116;10.818;2023-05-08T16:41:50;15.70;99.90
41985;DHT22;28319;48.116;10.818;2023-05-08T16:46:53;15.60;99.90
41985;DHT22;28319;48.116;10.818;2023-05-08T16:51:55;15.70;99.90
41985;DHT22;28319;48.116;10.818;2023-05-08T16:56:57;15.80;99.90
41985;DHT22;28319;48.116;10.818;2023-05-08T17:02:00;15.70;99.90
41985;DHT22;28319;48.116;10.818;2023-05-08T17:07:03;15.80;99.90
41985;DHT22;28319;48.116;10.818;2023-05-08T17:12:05;15.80;99.90
41985;DHT22;28319;48.116;10.818;2023-05-08T17:17:09;15.80;99.90
41985;DHT22;28319;48.116;10.818;2023-05-08T17:22:11;15.70;99.90
41985;DHT22;28319;48.116;10.818;2023-05-08T17:27:13;15.60;99.90
41985;DHT22;28319;48.116;10.818;2023-05-08T17:32:17;15.70;99.90
41985;DHT22;28319;48.116;10.818;2023-05-08T17:37:19;15.70;99.90
41985;DHT22;28319;48.116;10.818;2023-05-08T17:42:21;15.50;99.90
41985;DHT22;28319;48.116;10.818;2023-05-08T17:47:24;15.70;99.90
41985;DHT22;28319;48.116;10.818;2023-05-08T17:52:26;15.70;99.90
41985;DHT22;28319;48.116;10.818;2023-05-08T17:57:28;15.70;99.90
41985;DHT22;28319;48.116;10.818;2023-05-08T18:02:32;15.80;99.90
41985;DHT22;28319;48.116;10.818;2023-05-08T18:07:34;15.70;99.90
41985;DHT22;28319;48.116;10.818;2023-05-08T18:12:36;15.80;99.90
41985;DHT22;28319;48.116;10.818;2023-05-08T18:17:39;15.90;99.90
41985;DHT22;28319;48.116;10.818;2023-05-08T18:22:43;16.00;99.90
41985;DHT22;28319;48.116;10.818;2023-05-08T18:27:45;16.00;99.90
41985;DHT22;28319;48.116;10.818;2023-05-08T18:32:51;16.00;99.90
41985;DHT22;28319;48.116;10.818;2023-05-08T18:37:53;15.90;99.90
41985;DHT22;28319;48.116;10.818;2023-05-08T18:42:55;15.80;99.90
41985;DHT22;28319;48.116;10.818;2023-05-08T18:47:59;15.70;99.90
41985;DHT22;28319;48.116;10.818;2023-05-08T18:53:00;15.70;99.90
41985;DHT22;28319;48.116;10.818;2023-05-08T18:58:02;15.60;99.90
41985;DHT22;28319;48.116;10.818;2023-05-08T19:03:07;15.60;99.90
41985;DHT22;28319;48.116;10.818;2023-05-08T19:08:09;15.60;99.90
41985;DHT22;28319;48.116;10.818;2023-05-08T19:13:12;15.60;99.90
41985;DHT22;28319;48.116;10.818;2023-05-08T19:18:16;15.60;99.90
41985;DHT22;28319;48.116;10.818;2023-05-08T19:23:18;15.50;99.90
41985;DHT22;28319;48.116;10.818;2023-05-08T19:28:20;15.50;99.90
41985;DHT22;28319;48.116;10.818;2023-05-08T19:33:23;15.40;99.90
41985;DHT22;28319;48.116;10.818;2023-05-08T19:38:25;15.30;99.90
41985;DHT22;28319;48.116;10.818;2023-05-08T19:43:27;15.20;99.90
41985;DHT22;28319;48.116;10.818;2023-05-08T19:48:30;15.20;99.90
41985;DHT22;28319;48.116;10.818;2023-05-08T19:53:32;15.00;99.90
41985;DHT22;28319;48.116;10.818;2023-05-08T19:58:35;15.00;99.90
41985;DHT22;28319;48.116;10.818;2023-05-08T20:03:38;14.80;99.90
41985;DHT22;28319;48.116;10.818;2023-05-08T20:08:40;14.70;99.90
41985;DHT22;28319;48.116;10.818;2023-05-08T20:13:42;14.60;99.90
41985;DHT22;28319;48.116;10.818;2023-05-08T20:18:46;14.50;99.90
41985;DHT22;28319;48.116;10.818;2023-05-08T20:23:48;14.40;99.90
41985;DHT22;28319;48.116;10.818;2023-05-08T20:28:50;14.30;99.90
41985;DHT22;28319;48.116;10.818;2023-05-08T20:33:53;14.30;99.90
41985;DHT22;28319;48.116;10.818;2023-05-08T20:38:56;14.20;99.90
41985;DHT22;28319;48.116;10.818;2023-05-08T20:43:57;14.10;99.90
41985;DHT22;28319;48.116;10.818;2023-05-08T20:49:01;14.00;99.90
41985;DHT22;28319;48.116;10.818;2023-05-08T20:54:03;13.80;99.90
41985;DHT22;28319;48.116;10.818;2023-05-08T20:59:05;13.80;99.90
41985;DHT22;28319;48.116;10.818;2023-05-08T21:04:09;13.80;99.90
41985;DHT22;28319;48.116;10.818;2023-05-08T21:09:11;13.70;99.90
41985;DHT22;28319;48.116;10.818;2023-05-08T21:14:12;13.70;99.90
41985;DHT22;28319;48.116;10.818;2023-05-08T21:19:16;13.70;99.90
41985;DHT22;28319;48.116;10.818;2023-05-08T21:24:19;13.60;99.90
41985;DHT22;28319;48.116;10.818;2023-05-08T21:29:21;13.60;99.90
41985;DHT22;28319;48.116;10.818;2023-05-08T21:34:25;13.50;99.90
41985;DHT22;28319;48.116;10.818;2023-05-08T21:39:27;13.40;99.90
41985;DHT22;28319;48.116;10.818;2023-05-08T21:44:29;13.40;99.90
41985;DHT22;28319;48.116;10.818;2023-05-08T21:49:32;13.30;99.90
41985;DHT22;28319;48.116;10.818;2023-05-08T21:54:34;13.10;99.90
41985;DHT22;28319;48.116;10.818;2023-05-08T21:59:36;13.00;99.90
41985;DHT22;28319;48.116;10.818;2023-05-08T22:04:39;13.00;99.90
41985;DHT22;28319;48.116;10.818;2023-05-08T22:09:41;12.90;99.90
41985;DHT22;28319;48.116;10.818;2023-05-08T22:14:43;12.90;99.90
41985;DHT22;28319;48.116;10.818;2023-05-08T22:19:47;12.70;99.90
41985;DHT22;28319;48.116;10.818;2023-05-08T22:24:49;12.70;99.90
41985;DHT22;28319;48.116;10.818;2023-05-08T22:29:52;12.80;99.90
41985;DHT22;28319;48.116;10.818;2023-05-08T22:34:55;12.70;99.90
41985;DHT22;28319;48.116;10.818;2023-05-08T22:39:57;12.70;99.90
41985;DHT22;28319;48.116;10.818;2023-05-08T22:44:59;12.40;99.90
41985;DHT22;28319;48.116;10.818;2023-05-08T22:50:03;12.60;99.90
41985;DHT22;28319;48.116;10.818;2023-05-08T22:55:08;12.60;99.90
41985;DHT22;28319;48.116;10.818;2023-05-08T23:00:11;12.60;99.90
41985;DHT22;28319;48.116;10.818;2023-05-08T23:05:14;12.60;99.90
41985;DHT22;28319;48.116;10.818;2023-05-08T23:10:17;12.50;99.90
41985;DHT22;28319;48.116;10.818;2023-05-08T23:15:19;12.40;99.90
41985;DHT22;28319;48.116;10.818;2023-05-08T23:20:23;12.40;99.90
41985;DHT22;28319;48.116;10.818;2023-05-08T23:25:25;12.40;99.90
41985;DHT22;28319;48.116;10.818;2023-05-08T23:30:27;12.20;99.90
41985;DHT22;28319;48.116;10.818;2023-05-08T23:35:30;12.20;99.90
41985;DHT22;28319;48.116;10.818;2023-05-08T23:40:32;11.90;99.90
41985;DHT22;28319;48.116;10.818;2023-05-08T23:45:35;11.90;99.90
41985;DHT22;28319;48.116;10.818;2023-05-08T23:50:38;11.80;99.90
41985;DHT22;28319;48.116;10.818;2023-05-08T23:55:41;11.90;99.90
